Time;durP1;ratioP1;P1;durP2;ratioP2;P2;SDS_P1;SDS_P2;PMS_P1;PMS_P2;Temp;Humidity;BMP_temperature;BMP_pressure;BME280_temperature;BME280_humidity;BME280_pressure;Samples;Min_cycle;Max_cycle;Signal;HPM_P1;HPM_P2
2022/03/04 00:02:00;;;;;;;2.87;2.63;;;0.70;54.90;-0.30;98352.00;;;;5114738;28;20195;-76
2022/03/04 00:04:28;;;;;;;6.53;4.40;;;0.70;55.30;-0.50;98357.00;;;;5114524;28;20645;-77
2022/03/04 00:06:57;;;;;;;5.37;2.70;;;0.50;54.70;-0.40;98355.00;;;;5114628;28;20218;-76
2022/03/04 00:09:26;;;;;;;6.43;2.37;;;0.50;54.70;-0.40;98361.00;;;;5114526;28;20225;-77
2022/03/04 00:11:53;;;;;;;4.27;2.97;;;0.50;54.70;-0.40;98362.00;;;;5114481;28;20233;-77
2022/03/04 00:14:20;;;;;;;3.47;3.27;;;0.50;55.00;-0.50;98358.00;;;;5114411;28;20304;-77
2022/03/04 00:16:46;;;;;;;1.63;1.53;;;0.50;55.20;-0.50;98359.00;;;;5114375;28;20274;-76
2022/03/04 00:19:15;;;;;;;2.67;2.20;;;0.40;55.10;-0.50;98369.00;;;;5114366;28;20544;-77
2022/03/04 00:21:48;;;;;;;2.17;1.97;;;0.40;55.90;-0.90;98363.00;;;;5115266;28;20284;-77
2022/03/04 00:24:19;;;;;;;5.50;1.90;;;0.20;55.60;-1.00;98366.00;;;;5100250;28;20632;-77
2022/03/04 00:26:48;;;;;;;8.43;3.73;;;0.10;56.60;-0.80;98361.00;;;;5117936;28;20248;-77
2022/03/04 00:29:14;;;;;;;1.23;1.23;;;0.10;56.90;-0.90;98361.00;;;;5118144;28;20636;-76
2022/03/04 00:31:42;;;;;;;3.53;3.23;;;0.10;57.10;-0.70;98374.00;;;;5117897;28;20214;-77
2022/03/04 00:34:10;;;;;;;3.17;2.87;;;0.10;57.30;-0.80;98367.00;;;;5117862;28;20214;-77
2022/03/04 00:36:38;;;;;;;1.63;1.53;;;0.10;57.00;-0.70;98368.00;;;;5117812;28;20202;-77
2022/03/04 00:39:08;;;;;;;3.53;2.43;;;0.20;56.70;-0.70;98362.00;;;;5117852;28;20200;-77
2022/03/04 00:41:34;;;;;;;1.57;1.47;;;0.20;56.40;-0.70;98362.00;;;;5100191;28;20626;-76
2022/03/04 00:44:02;;;;;;;2.43;2.33;;;0.20;56.00;-0.90;98385.00;;;;5117583;28;20193;-76
2022/03/04 00:46:29;;;;;;;2.17;2.07;;;0.00;56.00;-1.00;98336.00;;;;5117481;28;20221;-76
2022/03/04 00:48:56;;;;;;;2.10;1.97;;;0.00;56.80;-1.00;98374.00;;;;5117561;28;20572;-76
2022/03/04 00:51:22;;;;;;;1.67;1.57;;;-0.10;56.50;-1.00;98375.00;;;;5117685;28;20305;-76
2022/03/04 00:53:49;;;;;;;2.43;2.23;;;0.00;56.20;-1.00;98364.00;;;;5099507;28;20258;-76
2022/03/04 00:56:15;;;;;;;3.13;2.83;;;0.00;56.30;-1.10;98373.00;;;;5117420;28;20285;-76
2022/03/04 00:58:42;;;;;;;3.33;2.80;;;-0.20;56.10;-1.20;98365.00;;;;5117512;28;20197;-76
2022/03/04 01:01:09;;;;;;;3.60;2.07;;;-0.20;56.20;-1.20;98378.00;;;;5117199;28;20233;-76
2022/03/04 01:03:38;;;;;;;2.23;2.13;;;-0.20;56.80;-1.20;98371.00;;;;5099425;28;20232;-76
2022/03/04 01:06:08;;;;;;;1.63;1.53;;;-0.30;56.90;-1.20;98369.00;;;;5117112;28;20225;-76
2022/03/04 01:08:36;;;;;;;2.30;2.10;;;-0.30;56.90;-1.30;98375.00;;;;5117264;28;20194;-75
2022/03/04 01:11:05;;;;;;;2.20;2.10;;;-0.30;57.00;-1.40;98368.00;;;;5117126;28;20205;-76
2022/03/04 01:13:32;;;;;;;3.97;3.33;;;-0.40;56.80;-1.40;98373.00;;;;5117164;28;20249;-76
2022/03/04 01:15:58;;;;;;;2.27;2.17;;;-0.40;57.00;-1.40;98384.00;;;;5117290;28;20225;-76
2022/03/04 01:18:28;;;;;;;4.30;2.73;;;-0.50;57.20;-1.50;98373.00;;;;5117226;28;20208;-76
2022/03/04 01:20:55;;;;;;;2.27;2.17;;;-0.40;57.10;-1.50;98371.00;;;;5116977;28;20231;-76
2022/03/04 01:23:21;;;;;;;1.77;1.67;;;-0.50;57.40;-1.60;98373.00;;;;5116909;28;20209;-76
2022/03/04 01:25:52;;;;;;;1.87;1.77;;;-0.60;57.30;-1.90;98362.00;;;;5116924;28;20243;-76
2022/03/04 01:28:19;;;;;;;2.63;2.13;;;-0.70;57.50;-1.70;98359.00;;;;5117032;28;20209;-77
2022/03/04 01:30:46;;;;;;;1.43;1.37;;;-0.70;58.00;-1.70;98365.00;;;;5116805;28;20202;-77
2022/03/04 01:33:15;;;;;;;4.77;3.23;;;-0.80;58.00;-1.50;98365.00;;;;5116401;28;20238;-76
2022/03/04 01:35:43;;;;;;;4.90;4.37;;;-0.60;58.30;-1.70;98354.00;;;;5116930;28;20199;-77
2022/03/04 01:38:12;;;;;;;2.63;2.43;;;-0.70;58.00;-1.50;98359.00;;;;5116849;28;20194;-76
2022/03/04 01:40:38;;;;;;;1.73;1.63;;;-0.70;58.50;-1.40;98356.00;;;;5116745;28;20749;-76
2022/03/04 01:43:05;;;;;;;2.20;2.07;;;-0.60;57.80;-1.40;98359.00;;;;5116723;28;20221;-75
2022/03/04 01:45:32;;;;;;;3.27;2.80;;;-0.50;57.80;-1.30;98361.00;;;;5116704;28;20193;-77
2022/03/04 01:47:59;;;;;;;2.77;2.57;;;-0.50;57.80;-1.40;98353.00;;;;5098637;28;20364;-77
2022/03/04 01:50:26;;;;;;;3.70;2.63;;;-0.40;57.40;-1.40;98358.00;;;;5116735;28;20197;-77
2022/03/04 01:52:54;;;;;;;5.10;3.20;;;-0.40;57.60;-1.20;98352.00;;;;5116547;28;20228;-76
2022/03/04 01:55:21;;;;;;;2.00;1.90;;;-0.40;58.90;-1.30;98349.00;;;;5116573;28;20194;-77
2022/03/04 01:57:49;;;;;;;2.27;2.07;;;-0.40;57.70;-1.30;98343.00;;;;5098601;28;20213;-77
2022/03/04 02:00:18;;;;;;;2.93;2.73;;;-0.40;57.40;-1.50;98345.00;;;;5116422;28;20228;-77
2022/03/04 02:02:47;;;;;;;2.60;2.40;;;-0.50;57.60;-1.50;98353.00;;;;5116346;28;20229;-77
2022/03/04 02:05:15;;;;;;;3.73;2.23;;;-0.60;58.10;-1.60;98356.00;;;;5098480;28;20259;-76
2022/03/04 02:07:41;;;;;;;3.37;2.47;;;-0.60;57.70;-1.70;98345.00;;;;5116430;28;20550;-76
2022/03/04 02:10:10;;;;;;;2.20;2.10;;;-0.70;58.40;-1.80;98347.00;;;;5116474;28;20278;-77
2022/03/04 02:12:37;;;;;;;2.87;2.67;;;-0.80;58.70;-1.90;98345.00;;;;5098363;28;20235;-77
2022/03/04 02:15:08;;;;;;;3.10;2.80;;;-0.80;58.80;-1.90;98333.00;;;;5116312;28;20210;-77
2022/03/04 02:17:38;;;;;;;2.13;2.03;;;-0.90;59.40;-1.70;98333.00;;;;5098307;28;20258;-76
2022/03/04 02:20:07;;;;;;;2.80;1.67;;;-0.80;59.50;-1.60;98340.00;;;;5098370;28;20232;-77
2022/03/04 02:22:34;;;;;;;3.77;2.10;;;-0.70;59.60;-1.60;98347.00;;;;5116164;28;20240;-77
2022/03/04 02:25:02;;;;;;;3.00;2.63;;;-0.70;59.70;-1.50;98338.00;;;;5116086;28;20655;-77
2022/03/04 02:27:28;;;;;;;1.67;1.57;;;-0.70;59.40;-1.70;98337.00;;;;5115905;28;20198;-76
2022/03/04 02:29:55;;;;;;;3.73;2.70;;;-0.70;59.70;-1.60;98340.00;;;;5116023;28;20206;-77
2022/03/04 02:32:24;;;;;;;1.93;1.77;;;-0.70;59.10;-1.60;98336.00;;;;5097944;28;20232;-77
2022/03/04 02:34:50;;;;;;;2.27;2.07;;;-0.70;59.10;-1.60;98352.00;;;;5116225;28;20635;-76
2022/03/04 02:37:18;;;;;;;1.67;1.57;;;-0.70;58.90;-1.80;98344.00;;;;5116083;28;20497;-76
2022/03/04 02:39:45;;;;;;;2.30;2.10;;;-0.80;59.10;-1.70;98334.00;;;;5116020;28;20228;-77
2022/03/04 02:42:13;;;;;;;2.80;1.37;;;-0.80;59.40;-1.80;98336.00;;;;5116877;28;20225;-77
2022/03/04 02:44:40;;;;;;;2.67;2.07;;;-0.80;59.40;-1.90;98345.00;;;;5118002;28;20294;-77
2022/03/04 02:47:09;;;;;;;2.97;2.67;;;-0.90;59.20;-1.90;98337.00;;;;5117672;28;20225;-77
2022/03/04 02:49:36;;;;;;;1.73;1.63;;;-1.00;59.40;-1.90;98337.00;;;;5116793;28;20222;-77
2022/03/04 02:52:03;;;;;;;3.90;1.93;;;-1.00;59.50;-1.90;98336.00;;;;5115685;28;20231;-77
2022/03/04 02:54:29;;;;;;;2.17;2.07;;;-1.00;59.50;-2.00;98343.00;;;;5099070;28;20210;-76
2022/03/04 02:56:59;;;;;;;2.77;2.60;;;-1.00;59.10;-2.00;98338.00;;;;5117182;28;20251;-77
2022/03/04 02:59:27;;;;;;;1.33;1.33;;;-1.10;59.60;-2.00;98337.00;;;;5121998;28;20240;-77
2022/03/04 03:01:54;;;;;;;2.33;2.10;;;-1.00;59.60;-2.00;98336.00;;;;5118059;28;20219;-76
2022/03/04 03:04:21;;;;;;;1.73;1.67;;;-1.10;59.30;-2.10;98334.00;;;;5115567;28;20713;-77
2022/03/04 03:06:52;;;;;;;3.70;2.33;;;-1.10;59.30;-2.20;98338.00;;;;5115222;28;20229;-77
2022/03/04 03:09:18;;;;;;;1.33;1.27;;;-1.20;59.30;-2.20;98336.00;;;;5115485;28;20622;-77
2022/03/04 03:11:45;;;;;;;4.40;3.47;;;-1.20;59.20;-2.00;98339.00;;;;5097517;28;20646;-77
2022/03/04 03:14:12;;;;;;;2.40;2.20;;;-1.10;59.20;-2.10;98338.00;;;;5115399;28;20280;-76
2022/03/04 03:16:40;;;;;;;1.43;1.43;;;-1.20;58.80;-2.10;98349.00;;;;5115384;28;20222;-76
2022/03/04 03:19:08;;;;;;;5.87;2.20;;;-1.20;59.10;-2.20;98345.00;;;;5115155;28;20220;-76
2022/03/04 03:21:34;;;;;;;5.03;1.83;;;-1.20;59.30;-2.20;98349.00;;;;5115150;28;20216;-77
2022/03/04 03:24:01;;;;;;;2.57;2.20;;;-1.20;59.40;-2.20;98342.00;;;;5115291;28;20222;-76
2022/03/04 03:26:27;;;;;;;2.10;1.93;;;-1.20;60.10;-2.30;98342.00;;;;5115002;28;20225;-77
2022/03/04 03:28:57;;;;;;;2.23;2.13;;;-1.30;59.30;-2.30;98338.00;;;;5115033;28;20228;-77
2022/03/04 03:31:24;;;;;;;1.73;1.63;;;-1.40;59.60;-2.00;98345.00;;;;5115154;28;20544;-77
2022/03/04 03:33:51;;;;;;;2.60;2.37;;;-1.20;59.80;-2.10;98344.00;;;;5114900;28;20219;-77
2022/03/04 03:36:20;;;;;;;1.97;1.70;;;-1.20;59.30;-2.30;98349.00;;;;5097151;28;20194;-75
2022/03/04 03:38:47;;;;;;;4.17;2.77;;;-1.30;58.90;-2.40;98341.00;;;;5114793;28;20201;-76
2022/03/04 03:41:13;;;;;;;5.97;3.23;;;-1.40;58.90;-2.40;98345.00;;;;5114814;28;20216;-77
2022/03/04 03:43:40;;;;;;;1.90;1.80;;;-1.40;59.20;-2.50;98343.00;;;;5114974;28;20516;-77
2022/03/04 03:46:09;;;;;;;2.70;2.50;;;-1.40;59.00;-2.60;98325.00;;;;5114938;28;20334;-77
2022/03/04 03:48:39;;;;;;;1.70;1.60;;;-1.50;59.30;-2.70;98350.00;;;;5114822;28;20202;-76
2022/03/04 03:51:09;;;;;;;2.30;2.10;;;-1.60;59.80;-2.60;98353.00;;;;5114823;28;20204;-76
2022/03/04 03:53:36;;;;;;;2.83;2.13;;;-1.60;60.40;-2.50;98330.00;;;;5114631;28;20231;-76
2022/03/04 03:56:04;;;;;;;4.57;2.17;;;-1.50;60.40;-2.40;98357.00;;;;5114611;28;20256;-76
2022/03/04 03:58:30;;;;;;;1.30;1.30;;;-1.50;60.50;-2.40;98343.00;;;;5114582;28;20551;-76
2022/03/04 04:00:59;;;;;;;1.57;1.50;;;-1.50;60.30;-2.40;98356.00;;;;5114706;28;20211;-76
2022/03/04 04:03:26;;;;;;;3.47;1.90;;;-1.50;60.30;-2.40;98360.00;;;;5114533;28;20673;-77
2022/03/04 04:05:55;;;;;;;2.67;1.93;;;-1.50;60.20;-2.50;98351.00;;;;5114568;28;20223;-76
2022/03/04 04:08:22;;;;;;;2.57;2.37;;;-1.50;60.00;-2.30;98361.00;;;;5096597;28;20223;-76
2022/03/04 04:10:48;;;;;;;6.77;2.20;;;-1.50;60.00;-2.50;98368.00;;;;5096579;28;20678;-76
2022/03/04 04:13:17;;;;;;;4.50;2.20;;;-1.50;59.80;-2.60;98358.00;;;;5114258;28;20220;-77
2022/03/04 04:15:44;;;;;;;1.63;1.53;;;-1.60;59.70;-2.60;98362.00;;;;5114530;28;20239;-76
2022/03/04 04:18:10;;;;;;;2.70;2.33;;;-1.60;59.90;-2.60;98361.00;;;;5114416;28;20228;-76
2022/03/04 04:20:37;;;;;;;3.23;3.00;;;-1.70;60.10;-2.60;98363.00;;;;5114371;28;20193;-76
2022/03/04 04:23:04;;;;;;;2.33;2.17;;;-1.70;59.80;-2.60;98369.00;;;;5114191;28;20225;-76
2022/03/04 04:25:34;;;;;;;3.60;2.30;;;-1.60;60.20;-2.50;98353.00;;;;5114160;28;20227;-76
2022/03/04 04:28:00;;;;;;;3.43;2.50;;;-1.60;60.00;-2.50;98362.00;;;;5114327;28;20275;-76
2022/03/04 04:30:29;;;;;;;2.20;2.00;;;-1.60;59.80;-2.60;98363.00;;;;5114394;28;20200;-76
2022/03/04 04:32:56;;;;;;;1.83;1.70;;;-1.50;59.30;-2.60;98372.00;;;;5114128;28;20296;-75
2022/03/04 04:35:23;;;;;;;2.47;2.27;;;-1.60;59.10;-2.80;98371.00;;;;5114143;28;20205;-75
2022/03/04 04:37:49;;;;;;;2.57;2.37;;;-1.70;59.50;-2.60;98367.00;;;;5114178;28;20205;-76
2022/03/04 04:40:17;;;;;;;3.17;2.73;;;-1.70;59.70;-2.80;98363.00;;;;5114031;28;20240;-76
2022/03/04 04:42:43;;;;;;;2.50;2.30;;;-1.70;59.40;-2.90;98366.00;;;;5113870;28;20283;-75
2022/03/04 04:45:10;;;;;;;1.73;1.63;;;-1.80;59.70;-3.00;98359.00;;;;5113962;28;20548;-76
2022/03/04 04:47:38;;;;;;;15.93;2.30;;;-1.90;60.40;-2.80;98366.00;;;;5114138;28;20203;-76
2022/03/04 04:50:06;;;;;;;2.57;2.03;;;-1.90;60.60;-2.90;98363.00;;;;5114139;28;20276;-76
2022/03/04 04:52:33;;;;;;;1.60;1.50;;;-1.90;60.60;-2.90;98367.00;;;;5113762;28;20230;-76
2022/03/04 04:54:59;;;;;;;1.67;1.57;;;-1.90;60.90;-2.90;98360.00;;;;5113792;28;20219;-76
2022/03/04 04:57:27;;;;;;;5.37;3.03;;;-1.90;61.30;-2.70;98366.00;;;;5113940;28;20229;-76
2022/03/04 04:59:53;;;;;;;2.87;2.50;;;-1.80;61.60;-2.70;98372.00;;;;5113737;28;20238;-76
2022/03/04 05:02:20;;;;;;;4.37;2.17;;;-1.80;60.90;-2.80;98377.00;;;;5113815;28;20628;-76
2022/03/04 05:04:47;;;;;;;2.10;2.00;;;-1.90;60.80;-2.70;98382.00;;;;5113779;28;20225;-74
2022/03/04 05:07:14;;;;;;;1.97;1.87;;;-1.80;60.70;-3.00;98392.00;;;;5113894;28;20534;-76
2022/03/04 05:09:41;;;;;;;2.03;1.67;;;-1.90;60.30;-2.90;98388.00;;;;5117317;28;20235;-77
2022/03/04 05:12:09;;;;;;;1.33;1.10;;;-1.90;61.30;-2.90;98404.00;;;;5117198;28;20505;-76
2022/03/04 05:14:36;;;;;;;2.03;1.83;;;-1.90;61.00;-2.80;98397.00;;;;5099208;28;20200;-76
2022/03/04 05:17:04;;;;;;;4.37;3.33;;;-1.90;61.10;-3.00;98398.00;;;;5117096;28;20730;-76
2022/03/04 05:19:31;;;;;;;1.60;1.50;;;-2.00;60.80;-3.30;98394.00;;;;5117045;28;20655;-76
2022/03/04 05:21:59;;;;;;;1.10;1.00;;;-2.20;61.00;-3.00;98393.00;;;;5117021;28;20216;-76
2022/03/04 05:24:26;;;;;;;2.20;1.53;;;-2.10;62.20;-2.90;98401.00;;;;5117043;28;20191;-76
2022/03/04 05:26:52;;;;;;;1.83;1.73;;;-2.00;61.60;-3.00;98401.00;;;;5116986;28;20210;-75
2022/03/04 05:29:19;;;;;;;2.60;2.40;;;-2.00;61.70;-3.00;98393.00;;;;5117034;28;20279;-76
2022/03/04 05:31:46;;;;;;;1.80;1.70;;;-2.00;61.80;-3.00;98394.00;;;;5116842;28;20303;-76
2022/03/04 05:34:13;;;;;;;3.60;2.37;;;-2.00;61.40;-2.90;98393.00;;;;5117118;28;20725;-76
2022/03/04 05:36:40;;;;;;;2.07;1.97;;;-2.00;61.60;-3.00;98405.00;;;;5098970;28;20197;-76
2022/03/04 05:39:07;;;;;;;5.47;2.20;;;-2.00;61.00;-3.10;98394.00;;;;5116778;28;20228;-77
2022/03/04 05:41:36;;;;;;;2.90;2.70;;;-2.10;60.70;-3.10;98399.00;;;;5116831;28;20260;-76
2022/03/04 05:44:03;;;;;;;2.43;2.33;;;-2.10;60.90;-3.10;98405.00;;;;5116758;28;20306;-76
2022/03/04 05:46:30;;;;;;;7.80;3.13;;;-2.10;60.80;-3.00;98415.00;;;;5116728;28;20282;-76
2022/03/04 05:48:58;;;;;;;1.07;1.07;;;-2.10;61.40;-3.00;98422.00;;;;5116831;28;20618;-76
2022/03/04 05:51:24;;;;;;;1.80;1.63;;;-2.10;61.30;-3.10;98419.00;;;;5117175;28;20255;-76
2022/03/04 05:53:51;;;;;;;2.57;2.37;;;-2.10;60.60;-3.20;98418.00;;;;5117130;28;20215;-75
2022/03/04 05:56:18;;;;;;;2.23;1.80;;;-2.20;61.60;-3.20;98420.00;;;;5117087;28;20260;-75
2022/03/04 05:58:45;;;;;;;1.93;1.63;;;-2.20;62.10;-3.20;98418.00;;;;5098609;28;20269;-76
2022/03/04 06:01:12;;;;;;;1.10;1.10;;;-2.20;61.50;-3.30;98419.00;;;;5116567;28;20202;-76
2022/03/04 06:03:39;;;;;;;1.83;1.73;;;-2.30;61.50;-3.40;98392.00;;;;5116485;28;20238;-74
2022/03/04 06:06:11;;;;;;;1.70;1.60;;;-2.30;61.80;-3.30;98429.00;;;;5116413;28;20227;-75
2022/03/04 06:08:38;;;;;;;2.10;2.00;;;-2.30;61.80;-3.40;98418.00;;;;5116408;28;20194;-75
2022/03/04 06:11:08;;;;;;;2.73;2.27;;;-2.40;61.70;-3.40;98418.00;;;;5098410;28;20212;-75
2022/03/04 06:13:35;;;;;;;2.30;2.10;;;-2.40;62.10;-3.40;98413.00;;;;5098276;28;20287;-75
2022/03/04 06:16:01;;;;;;;2.77;2.57;;;-2.40;62.10;-3.30;98431.00;;;;5116687;28;20190;-75
2022/03/04 06:18:28;;;;;;;3.40;3.20;;;-2.30;62.70;-3.20;98419.00;;;;5118396;28;20209;-74
2022/03/04 06:20:54;;;;;;;4.13;1.80;;;-2.20;62.70;-3.00;98430.00;;;;5115525;28;20235;-73
2022/03/04 06:23:24;;;;;;;3.27;2.37;;;-2.20;62.80;-3.00;98436.00;;;;5116139;28;20231;-75
2022/03/04 06:25:50;;;;;;;2.73;2.10;;;-2.10;62.10;-3.10;98435.00;;;;5116229;28;20220;-75
2022/03/04 06:28:17;;;;;;;3.67;3.10;;;-2.10;61.80;-3.00;98429.00;;;;5116709;28;20674;-75
2022/03/04 06:30:46;;;;;;;5.80;2.10;;;-2.00;61.80;-3.00;98432.00;;;;5120719;28;20214;-75
2022/03/04 06:33:30;;;;;;;2.10;1.77;;;-2.10;61.30;-3.00;98427.00;;;;5116158;28;20202;-75
2022/03/04 06:36:00;;;;;;;2.10;1.77;;;-2.10;61.20;-3.10;98430.00;;;;5115976;28;20211;-76
2022/03/04 06:38:27;;;;;;;2.17;2.07;;;-2.10;61.20;-3.20;98439.00;;;;5115775;28;20239;-75
2022/03/04 06:40:54;;;;;;;2.00;1.90;;;-2.10;61.60;-3.20;98436.00;;;;5115873;28;20282;-76
2022/03/04 06:43:20;;;;;;;3.87;2.90;;;-2.10;62.00;-3.10;98443.00;;;;5115715;28;20306;-75
2022/03/04 06:45:49;;;;;;;2.30;2.20;;;-2.10;62.30;-3.00;98445.00;;;;5115651;28;20240;-76
2022/03/04 06:48:18;;;;;;;2.57;2.40;;;-2.10;62.00;-3.00;98449.00;;;;5115667;28;20260;-75
2022/03/04 06:50:45;;;;;;;2.90;2.17;;;-2.00;61.90;-3.00;98447.00;;;;5115640;28;20203;-76
2022/03/04 06:53:12;;;;;;;2.30;2.17;;;-2.00;62.00;-2.90;98449.00;;;;5115709;28;20597;-76
2022/03/04 06:55:39;;;;;;;3.60;3.27;;;-2.00;62.10;-2.90;98447.00;;;;5115549;28;20240;-76
2022/03/04 06:58:06;;;;;;;5.70;3.27;;;-1.90;61.80;-2.80;98454.00;;;;5115501;28;20224;-76
2022/03/04 07:00:32;;;;;;;3.50;2.50;;;-1.90;62.00;-2.70;98465.00;;;;5115559;28;20292;-73
2022/03/04 07:02:59;;;;;;;5.07;3.37;;;-1.80;61.60;-2.90;98460.00;;;;5115376;28;20219;-76
2022/03/04 07:05:26;;;;;;;2.10;2.00;;;-1.80;61.60;-2.90;98468.00;;;;5115320;28;20262;-76
2022/03/04 07:07:55;;;;;;;3.10;2.57;;;-1.80;62.00;-2.70;98472.00;;;;5115392;28;20632;-75
2022/03/04 07:10:22;;;;;;;6.00;3.50;;;-1.80;62.10;-2.60;98453.00;;;;5115439;28;20640;-76
2022/03/04 07:12:51;;;;;;;9.40;5.33;;;-1.70;61.80;-2.50;98470.00;;;;5115195;28;20303;-75
2022/03/04 07:15:19;;;;;;;2.97;2.80;;;-1.60;62.10;-2.50;98471.00;;;;5115246;28;20203;-76
2022/03/04 07:17:48;;;;;;;2.63;2.43;;;-1.60;62.10;-2.40;98487.00;;;;5115278;28;20200;-76
2022/03/04 07:20:15;;;;;;;3.93;3.53;;;-1.40;62.70;-2.30;98482.00;;;;5097308;28;20222;-75
2022/03/04 07:22:43;;;;;;;5.33;3.07;;;-1.40;62.50;-2.30;98496.00;;;;5114936;28;20507;-76
2022/03/04 07:25:13;;;;;;;3.10;2.90;;;-1.40;62.40;-2.30;98491.00;;;;5115149;28;20234;-78
2022/03/04 07:27:40;;;;;;;2.37;2.27;;;-1.30;62.60;-2.30;98495.00;;;;5097358;28;20209;-77
2022/03/04 07:30:13;;;;;;;2.60;2.37;;;-1.30;62.90;-2.10;98486.00;;;;5118421;28;20196;-74
2022/03/04 07:32:43;;;;;;;2.53;2.37;;;-1.20;62.90;-2.10;98499.00;;;;5116458;28;20269;-75
2022/03/04 07:35:12;;;;;;;3.53;3.23;;;-1.10;62.70;-1.90;98506.00;;;;5115081;28;20226;-75
2022/03/04 07:37:40;;;;;;;3.60;3.30;;;-1.00;63.50;-1.90;98501.00;;;;5096823;28;20328;-74
2022/03/04 07:40:11;;;;;;;4.67;2.47;;;-1.00;62.30;-1.90;98498.00;;;;5114892;28;20272;-77
2022/03/04 07:42:38;;;;;;;3.03;2.30;;;-0.90;61.30;-1.90;98497.00;;;;5114993;28;20225;-78
2022/03/04 07:45:08;;;;;;;1.43;1.33;;;-0.90;61.00;-1.80;98493.00;;;;5114865;28;20198;-74
2022/03/04 07:47:35;;;;;;;2.47;2.27;;;-0.80;60.90;-1.50;98496.00;;;;5114701;28;20193;-72
2022/03/04 07:50:03;;;;;;;1.30;1.30;;;-0.70;60.50;-1.60;98507.00;;;;5114595;28;20240;-73
2022/03/04 07:52:31;;;;;;;5.63;1.93;;;-0.70;59.40;-1.50;98493.00;;;;5114587;28;20254;-72
2022/03/04 07:55:01;;;;;;;2.73;2.53;;;-0.60;60.10;-1.20;98501.00;;;;5114667;28;20189;-74
2022/03/04 07:57:30;;;;;;;2.40;2.23;;;-0.50;60.20;-1.10;98502.00;;;;5096499;28;20536;-72
2022/03/04 07:59:56;;;;;;;2.03;1.93;;;-0.30;59.90;-1.10;98492.00;;;;5114527;28;20201;-72
2022/03/04 08:02:23;;;;;;;2.83;2.30;;;-0.30;59.00;-1.10;98490.00;;;;5114230;28;20648;-72
2022/03/04 08:04:50;;;;;;;5.63;2.10;;;-0.20;58.40;-1.10;98496.00;;;;5114441;28;20197;-72
2022/03/04 08:07:17;;;;;;;1.73;1.63;;;-0.20;58.10;-1.00;98497.00;;;;5114453;28;20628;-72
2022/03/04 08:09:44;;;;;;;2.77;2.30;;;-0.10;58.10;-0.90;98501.00;;;;5114271;28;20284;-72
2022/03/04 08:12:12;;;;;;;2.30;2.10;;;0.00;58.40;-0.70;98502.00;;;;5114210;28;20617;-72
2022/03/04 08:14:38;;;;;;;1.40;1.40;;;0.20;58.30;-0.60;98511.00;;;;5114393;28;20300;-73
2022/03/04 08:17:05;;;;;;;3.17;2.23;;;0.30;58.10;-0.40;98511.00;;;;5114517;28;20609;-74
2022/03/04 08:19:33;;;;;;;1.87;1.77;;;0.40;57.80;-0.30;98509.00;;;;5114381;28;20281;-73
2022/03/04 08:22:00;;;;;;;1.50;1.50;;;0.60;58.20;-0.10;98503.00;;;;5114016;28;20221;-73
2022/03/04 08:24:27;;;;;;;3.50;2.67;;;0.70;57.30;0.10;98502.00;;;;5114291;28;20236;-74
2022/03/04 08:26:53;;;;;;;1.67;1.57;;;0.80;57.60;0.20;98503.00;;;;5114283;28;20281;-72
2022/03/04 08:29:20;;;;;;;2.50;2.30;;;1.00;56.40;0.30;98493.00;;;;5114279;28;20288;-75
2022/03/04 08:31:48;;;;;;;1.80;1.67;;;1.10;56.20;0.50;98508.00;;;;5114255;28;20198;-73
2022/03/04 08:34:15;;;;;;;3.57;3.27;;;1.30;56.00;0.50;98503.00;;;;5114114;28;20614;-73
2022/03/04 08:36:41;;;;;;;1.93;1.83;;;1.40;55.90;0.60;98503.00;;;;5114129;28;20213;-73
2022/03/04 08:39:09;;;;;;;2.27;2.07;;;1.50;55.70;0.60;98502.00;;;;5113920;28;20313;-73
2022/03/04 08:41:36;;;;;;;3.13;2.83;;;1.60;55.50;0.80;98504.00;;;;5113981;28;20713;-72
2022/03/04 08:44:03;;;;;;;3.37;3.03;;;1.70;55.40;0.90;98472.00;;;;5117125;28;20201;-72
2022/03/04 08:46:30;;;;;;;1.97;1.87;;;1.80;55.30;0.90;98508.00;;;;5117503;28;20249;-74
2022/03/04 08:48:56;;;;;;;1.77;1.67;;;1.90;55.10;1.10;98509.00;;;;5117644;28;20214;-73
2022/03/04 08:51:25;;;;;;;2.40;2.07;;;1.90;55.10;1.20;98511.00;;;;5117537;28;20327;-73
2022/03/04 08:53:52;;;;;;;1.70;1.40;;;2.00;55.00;1.30;98526.00;;;;5117387;28;20220;-75
2022/03/04 08:56:22;;;;;;;2.63;2.43;;;2.10;54.70;1.30;98516.00;;;;5117564;28;20228;-72
2022/03/04 08:58:49;;;;;;;1.93;1.83;;;2.20;54.20;1.50;98523.00;;;;5117428;28;20219;-72
2022/03/04 09:01:18;;;;;;;5.87;3.43;;;2.30;54.00;1.60;98524.00;;;;5117627;28;20215;-72
2022/03/04 09:03:45;;;;;;;1.30;1.30;;;2.40;53.60;1.70;98510.00;;;;5117365;28;20250;-73
2022/03/04 09:06:11;;;;;;;2.07;1.97;;;2.50;53.30;1.80;98525.00;;;;5099308;28;20259;-72
2022/03/04 09:08:40;;;;;;;3.03;2.27;;;2.60;52.80;1.80;98524.00;;;;5117484;28;20203;-73
2022/03/04 09:11:07;;;;;;;1.57;1.53;;;2.70;52.30;1.90;98521.00;;;;5117247;28;20210;-72
2022/03/04 09:13:34;;;;;;;2.70;2.53;;;2.70;52.20;2.00;98518.00;;;;5099292;28;20250;-72
2022/03/04 09:16:02;;;;;;;4.00;2.83;;;2.80;51.90;2.20;98514.00;;;;5117205;28;20202;-73
2022/03/04 09:18:28;;;;;;;1.10;1.10;;;3.00;51.80;2.20;98518.00;;;;5117172;28;20281;-72
2022/03/04 09:20:55;;;;;;;3.30;3.00;;;3.00;50.70;2.30;98510.00;;;;5117290;28;20192;-75
2022/03/04 09:23:22;;;;;;;2.33;2.13;;;3.10;51.00;2.30;98516.00;;;;5117262;28;20231;-72
2022/03/04 09:25:49;;;;;;;2.47;2.27;;;3.10;50.80;2.40;98512.00;;;;5117229;28;20193;-72
2022/03/04 09:28:16;;;;;;;8.13;3.27;;;3.20;50.90;2.50;98514.00;;;;5116979;28;20204;-73
2022/03/04 09:30:43;;;;;;;4.90;3.50;;;3.30;50.10;2.70;98516.00;;;;5099067;28;20320;-73
2022/03/04 09:33:10;;;;;;;4.00;1.80;;;3.50;49.80;2.80;98512.00;;;;5117007;28;20235;-75
2022/03/04 09:35:37;;;;;;;2.50;2.30;;;3.60;49.70;3.00;98510.00;;;;5116890;28;20292;-74
2022/03/04 09:38:04;;;;;;;1.43;1.33;;;3.70;48.60;3.00;98516.00;;;;5116856;28;20237;-74
2022/03/04 09:40:32;;;;;;;1.90;1.80;;;3.70;48.40;3.10;98508.00;;;;5116832;28;20235;-74
2022/03/04 09:43:00;;;;;;;2.17;1.47;;;3.80;48.00;3.20;98513.00;;;;5116753;28;20229;-74
2022/03/04 09:45:27;;;;;;;2.93;2.63;;;4.00;47.30;3.30;98516.00;;;;5116898;28;20643;-73
2022/03/04 09:47:55;;;;;;;2.37;2.23;;;4.10;45.40;3.30;98531.00;;;;5116818;28;20197;-73
2022/03/04 09:50:22;;;;;;;2.17;2.07;;;4.10;45.30;3.50;98516.00;;;;5117024;28;20222;-73
2022/03/04 09:52:50;;;;;;;1.80;1.70;;;4.30;44.10;3.60;98517.00;;;;5116771;28;20196;-73
2022/03/04 09:55:17;;;;;;;10.23;2.40;;;4.40;44.10;3.70;98522.00;;;;5098677;28;20675;-73
2022/03/04 09:57:43;;;;;;;1.77;1.67;;;4.50;42.20;3.90;98512.00;;;;5116503;28;20204;-73
2022/03/04 10:00:12;;;;;;;2.73;2.47;;;4.60;42.50;4.00;98513.00;;;;5116532;28;20674;-73
2022/03/04 10:02:39;;;;;;;2.73;1.90;;;4.70;42.40;4.10;98514.00;;;;5098503;28;20221;-74
2022/03/04 10:05:08;;;;;;;2.23;2.10;;;4.80;41.10;4.20;98522.00;;;;5116648;28;20194;-73
2022/03/04 10:07:41;;;;;;;1.97;1.87;;;4.90;40.70;4.40;98516.00;;;;5116687;28;20206;-74
2022/03/04 10:10:14;;;;;;;2.60;2.40;;;5.10;39.90;4.50;98513.00;;;;5116513;28;20190;-72
2022/03/04 10:12:49;;;;;;;1.83;1.73;;;5.20;39.40;4.60;98518.00;;;;5116257;28;20198;-74
2022/03/04 10:15:19;;;;;;;2.23;2.03;;;5.30;39.50;4.70;98523.00;;;;5116138;28;20240;-74
2022/03/04 10:17:59;;;;;;;2.90;2.70;;;5.50;38.50;4.70;98523.00;;;;5116269;28;20200;-72
2022/03/04 10:20:39;;;;;;;3.47;2.90;;;5.50;39.00;4.90;98524.00;;;;5116237;28;20197;-73
2022/03/04 10:23:18;;;;;;;3.20;2.90;;;5.60;38.30;5.00;98514.00;;;;5116087;28;20243;-73
2022/03/04 10:25:48;;;;;;;2.43;2.33;;;5.80;37.70;5.20;98518.00;;;;5116171;28;20258;-74
2022/03/04 10:28:15;;;;;;;2.63;2.43;;;5.90;37.60;5.30;98527.00;;;;5116042;28;20222;-74
2022/03/04 10:30:47;;;;;;;2.20;2.07;;;6.00;36.80;5.40;98513.00;;;;5116152;28;20187;-74
2022/03/04 10:33:17;;;;;;;2.73;2.53;;;6.10;36.30;5.80;98504.00;;;;5116086;28;20196;-73
2022/03/04 10:35:45;;;;;;;4.03;2.60;;;6.30;35.40;5.60;98514.00;;;;5116188;28;20218;-74
2022/03/04 10:38:21;;;;;;;2.57;2.37;;;6.40;35.20;5.70;98502.00;;;;5116496;28;20253;-73
2022/03/04 10:40:48;;;;;;;5.27;3.63;;;6.50;36.00;5.90;98502.00;;;;5122249;28;20245;-73
2022/03/04 10:43:23;;;;;;;4.07;3.20;;;6.50;35.40;6.00;98507.00;;;;5120790;28;20305;-73
2022/03/04 10:46:02;;;;;;;3.50;1.93;;;6.60;35.80;6.10;98511.00;;;;5115984;28;20201;-74
2022/03/04 10:48:30;;;;;;;2.93;2.73;;;6.80;33.90;6.30;98514.00;;;;5116618;28;20205;-75
2022/03/04 10:51:03;;;;;;;3.07;2.87;;;7.00;33.70;6.40;98500.00;;;;5099310;28;20207;-76
2022/03/04 10:53:34;;;;;;;5.70;2.70;;;7.10;33.10;6.50;98505.00;;;;5127678;28;20230;-77
2022/03/04 10:56:04;;;;;;;2.77;2.60;;;7.20;33.60;6.60;98511.00;;;;5105509;28;20296;-78
2022/03/04 10:58:34;;;;;;;3.23;3.03;;;7.30;34.00;7.00;98505.00;;;;5115901;28;20197;-77
2022/03/04 11:01:05;;;;;;;8.63;4.23;;;7.50;32.80;7.00;98499.00;;;;5115835;28;20622;-75
2022/03/04 11:03:34;;;;;;;1.70;1.60;;;7.70;33.70;7.20;98500.00;;;;5097323;28;20238;-77